Haworth, New Jersey
Current Conditions -  °F | °C
As of 10:51 PM on Sunday 25 Jan 2015 (Local Time) from KTEB Reporting Station
Overcast Overcast  
Wind Chill: 23°   Ceiling: 7000
Heat Index: 31°   Visibility: 10mi
Dew Point: 10°   Wind: 9mph
Humidity: 42%   Direction: 10°N
Pressure: 29.99"   Gusts: NA
Location:  40.96°N, 73.99°W
Report Text: KTEB 260351Z 01008KT 10SM OVC070 M01/M12 A2999 RMK AO2 SLP153 T10061122 $
Loading
Personal Weather Stations






























Interactive Weather Map New forecast layout! Learn more

10-Day Weather Forecast

Advertisements
Track Severe Weather on mobile